sensor_id;sensor_type;location;lat;lon;timestamp;P1;durP1;ratioP1;P2;durP2;ratioP2
6412;SDS011;3239;48.714;9.472;2022-08-19T00:01:53;17.40;;;15.60;;
6412;SDS011;3239;48.714;9.472;2022-08-19T00:04:23;17.30;;;15.53;;
6412;SDS011;3239;48.714;9.472;2022-08-19T00:07:02;16.13;;;14.47;;
6412;SDS011;3239;48.714;9.472;2022-08-19T00:09:29;15.30;;;13.70;;
6412;SDS011;3239;48.714;9.472;2022-08-19T00:11:55;18.73;;;15.80;;
6412;SDS011;3239;48.714;9.472;2022-08-19T00:14:24;15.77;;;14.27;;
6412;SDS011;3239;48.714;9.472;2022-08-19T00:16:52;16.03;;;14.57;;
6412;SDS011;3239;48.714;9.472;2022-08-19T00:19:19;13.93;;;12.67;;
6412;SDS011;3239;48.714;9.472;2022-08-19T00:21:46;16.73;;;13.70;;
6412;SDS011;3239;48.714;9.472;2022-08-19T00:24:12;13.67;;;12.37;;
6412;SDS011;3239;48.714;9.472;2022-08-19T00:26:40;13.87;;;12.67;;
6412;SDS011;3239;48.714;9.472;2022-08-19T00:29:09;14.27;;;12.97;;
6412;SDS011;3239;48.714;9.472;2022-08-19T00:31:37;14.33;;;12.30;;
6412;SDS011;3239;48.714;9.472;2022-08-19T00:34:03;15.23;;;12.97;;
6412;SDS011;3239;48.714;9.472;2022-08-19T00:36:29;16.43;;;13.00;;
6412;SDS011;3239;48.714;9.472;2022-08-19T00:38:57;14.43;;;13.13;;
6412;SDS011;3239;48.714;9.472;2022-08-19T00:41:24;14.20;;;12.90;;
6412;SDS011;3239;48.714;9.472;2022-08-19T00:46:32;16.50;;;13.57;;
6412;SDS011;3239;48.714;9.472;2022-08-19T00:49:02;14.97;;;13.20;;
6412;SDS011;3239;48.714;9.472;2022-08-19T00:51:40;14.13;;;12.83;;
6412;SDS011;3239;48.714;9.472;2022-08-19T00:54:09;14.30;;;12.87;;
6412;SDS011;3239;48.714;9.472;2022-08-19T00:56:35;15.00;;;13.40;;
6412;SDS011;3239;48.714;9.472;2022-08-19T00:59:02;15.87;;;13.53;;
6412;SDS011;3239;48.714;9.472;2022-08-19T01:01:34;14.43;;;12.93;;
6412;SDS011;3239;48.714;9.472;2022-08-19T01:04:04;18.20;;;14.53;;
6412;SDS011;3239;48.714;9.472;2022-08-19T01:06:31;14.70;;;13.30;;
6412;SDS011;3239;48.714;9.472;2022-08-19T01:08:59;16.50;;;14.80;;
6412;SDS011;3239;48.714;9.472;2022-08-19T01:11:26;16.57;;;14.63;;
6412;SDS011;3239;48.714;9.472;2022-08-19T01:13:54;17.73;;;15.93;;
6412;SDS011;3239;48.714;9.472;2022-08-19T01:16:22;16.57;;;14.97;;
6412;SDS011;3239;48.714;9.472;2022-08-19T01:18:51;17.93;;;15.90;;
6412;SDS011;3239;48.714;9.472;2022-08-19T01:21:23;16.13;;;14.50;;
6412;SDS011;3239;48.714;9.472;2022-08-19T01:24:25;19.43;;;16.23;;
6412;SDS011;3239;48.714;9.472;2022-08-19T01:26:51;18.33;;;16.33;;
6412;SDS011;3239;48.714;9.472;2022-08-19T01:29:17;18.00;;;16.20;;
6412;SDS011;3239;48.714;9.472;2022-08-19T01:31:42;20.17;;;15.90;;
6412;SDS011;3239;48.714;9.472;2022-08-19T01:34:08;18.90;;;16.63;;
6412;SDS011;3239;48.714;9.472;2022-08-19T01:36:36;19.60;;;17.50;;
6412;SDS011;3239;48.714;9.472;2022-08-19T01:39:11;23.30;;;18.23;;
6412;SDS011;3239;48.714;9.472;2022-08-19T01:41:49;18.70;;;16.40;;
6412;SDS011;3239;48.714;9.472;2022-08-19T01:44:19;19.63;;;17.57;;
6412;SDS011;3239;48.714;9.472;2022-08-19T01:46:48;18.57;;;16.57;;
6412;SDS011;3239;48.714;9.472;2022-08-19T01:49:18;18.80;;;16.80;;
6412;SDS011;3239;48.714;9.472;2022-08-19T01:51:46;19.17;;;17.10;;
6412;SDS011;3239;48.714;9.472;2022-08-19T01:54:14;17.20;;;15.40;;
6412;SDS011;3239;48.714;9.472;2022-08-19T01:56:41;19.67;;;17.67;;
6412;SDS011;3239;48.714;9.472;2022-08-19T01:59:08;16.63;;;15.03;;
6412;SDS011;3239;48.714;9.472;2022-08-19T02:01:39;18.77;;;16.73;;
6412;SDS011;3239;48.714;9.472;2022-08-19T02:04:05;18.57;;;16.57;;
6412;SDS011;3239;48.714;9.472;2022-08-19T02:06:32;19.13;;;17.23;;
6412;SDS011;3239;48.714;9.472;2022-08-19T02:08:58;18.10;;;16.20;;
6412;SDS011;3239;48.714;9.472;2022-08-19T02:11:29;19.80;;;17.73;;
6412;SDS011;3239;48.714;9.472;2022-08-19T02:13:59;19.20;;;17.20;;
6412;SDS011;3239;48.714;9.472;2022-08-19T02:16:27;20.33;;;18.17;;
6412;SDS011;3239;48.714;9.472;2022-08-19T02:18:53;24.33;;;17.67;;
6412;SDS011;3239;48.714;9.472;2022-08-19T02:21:21;20.70;;;17.57;;
6412;SDS011;3239;48.714;9.472;2022-08-19T02:23:48;22.40;;;18.60;;
6412;SDS011;3239;48.714;9.472;2022-08-19T02:26:15;22.43;;;19.07;;
6412;SDS011;3239;48.714;9.472;2022-08-19T02:28:42;25.77;;;19.43;;
6412;SDS011;3239;48.714;9.472;2022-08-19T02:31:19;20.77;;;17.90;;
6412;SDS011;3239;48.714;9.472;2022-08-19T02:33:47;23.10;;;19.10;;
6412;SDS011;3239;48.714;9.472;2022-08-19T02:36:14;24.40;;;21.50;;
6412;SDS011;3239;48.714;9.472;2022-08-19T02:38:44;25.33;;;17.90;;
6412;SDS011;3239;48.714;9.472;2022-08-19T02:41:15;25.03;;;17.90;;
6412;SDS011;3239;48.714;9.472;2022-08-19T02:43:48;19.80;;;17.80;;
6412;SDS011;3239;48.714;9.472;2022-08-19T02:46:24;18.40;;;16.27;;
6412;SDS011;3239;48.714;9.472;2022-08-19T02:48:54;20.80;;;17.90;;
6412;SDS011;3239;48.714;9.472;2022-08-19T02:51:25;20.20;;;18.10;;
6412;SDS011;3239;48.714;9.472;2022-08-19T02:53:56;19.90;;;17.90;;
6412;SDS011;3239;48.714;9.472;2022-08-19T02:56:23;20.03;;;17.93;;
6412;SDS011;3239;48.714;9.472;2022-08-19T02:58:52;17.47;;;15.67;;
6412;SDS011;3239;48.714;9.472;2022-08-19T03:01:23;21.20;;;19.00;;
6412;SDS011;3239;48.714;9.472;2022-08-19T03:03:58;21.60;;;18.23;;
6412;SDS011;3239;48.714;9.472;2022-08-19T03:06:27;20.50;;;18.30;;
6412;SDS011;3239;48.714;9.472;2022-08-19T03:08:53;19.83;;;17.90;;
6412;SDS011;3239;48.714;9.472;2022-08-19T03:11:21;23.13;;;19.87;;
6412;SDS011;3239;48.714;9.472;2022-08-19T03:13:54;20.10;;;18.00;;
6412;SDS011;3239;48.714;9.472;2022-08-19T03:16:22;19.50;;;17.40;;
6412;SDS011;3239;48.714;9.472;2022-08-19T03:18:53;23.10;;;17.53;;
6412;SDS011;3239;48.714;9.472;2022-08-19T03:21:24;20.27;;;17.93;;
6412;SDS011;3239;48.714;9.472;2022-08-19T03:23:56;21.60;;;19.30;;
6412;SDS011;3239;48.714;9.472;2022-08-19T03:26:25;21.70;;;19.37;;
6412;SDS011;3239;48.714;9.472;2022-08-19T03:28:51;25.03;;;19.83;;
6412;SDS011;3239;48.714;9.472;2022-08-19T03:31:18;24.53;;;19.50;;
6412;SDS011;3239;48.714;9.472;2022-08-19T03:33:47;21.63;;;18.90;;
6412;SDS011;3239;48.714;9.472;2022-08-19T03:36:19;22.83;;;20.43;;
6412;SDS011;3239;48.714;9.472;2022-08-19T03:38:54;23.90;;;19.47;;
6412;SDS011;3239;48.714;9.472;2022-08-19T03:41:26;21.53;;;19.23;;
6412;SDS011;3239;48.714;9.472;2022-08-19T03:43:55;25.53;;;21.03;;
6412;SDS011;3239;48.714;9.472;2022-08-19T03:46:25;31.50;;;21.30;;
6412;SDS011;3239;48.714;9.472;2022-08-19T03:48:55;23.70;;;20.03;;
6412;SDS011;3239;48.714;9.472;2022-08-19T03:51:28;27.83;;;21.77;;
6412;SDS011;3239;48.714;9.472;2022-08-19T03:54:00;24.80;;;20.90;;
6412;SDS011;3239;48.714;9.472;2022-08-19T03:56:28;25.60;;;21.10;;
6412;SDS011;3239;48.714;9.472;2022-08-19T03:58:55;23.30;;;20.80;;
6412;SDS011;3239;48.714;9.472;2022-08-19T04:01:24;25.37;;;21.07;;
6412;SDS011;3239;48.714;9.472;2022-08-19T04:03:53;22.33;;;19.80;;
6412;SDS011;3239;48.714;9.472;2022-08-19T04:06:24;23.80;;;19.40;;
6412;SDS011;3239;48.714;9.472;2022-08-19T04:08:57;22.63;;;19.40;;
6412;SDS011;3239;48.714;9.472;2022-08-19T04:11:35;24.63;;;21.00;;
6412;SDS011;3239;48.714;9.472;2022-08-19T04:14:08;21.50;;;18.30;;
6412;SDS011;3239;48.714;9.472;2022-08-19T04:16:37;27.10;;;19.70;;
6412;SDS011;3239;48.714;9.472;2022-08-19T04:19:04;23.50;;;19.93;;
6412;SDS011;3239;48.714;9.472;2022-08-19T04:21:31;24.73;;;20.53;;
6412;SDS011;3239;48.714;9.472;2022-08-19T04:23:58;27.37;;;20.77;;
6412;SDS011;3239;48.714;9.472;2022-08-19T04:26:26;23.80;;;20.20;;
6412;SDS011;3239;48.714;9.472;2022-08-19T04:29:04;20.93;;;18.73;;
6412;SDS011;3239;48.714;9.472;2022-08-19T04:31:35;21.57;;;18.87;;
6412;SDS011;3239;48.714;9.472;2022-08-19T04:34:02;24.70;;;19.50;;
6412;SDS011;3239;48.714;9.472;2022-08-19T04:36:34;22.93;;;19.27;;
6412;SDS011;3239;48.714;9.472;2022-08-19T04:39:04;22.87;;;19.20;;
6412;SDS011;3239;48.714;9.472;2022-08-19T04:41:37;20.27;;;17.40;;
6412;SDS011;3239;48.714;9.472;2022-08-19T04:44:22;22.73;;;19.00;;
6412;SDS011;3239;48.714;9.472;2022-08-19T04:46:49;26.17;;;18.20;;
6412;SDS011;3239;48.714;9.472;2022-08-19T04:49:17;22.00;;;16.97;;
6412;SDS011;3239;48.714;9.472;2022-08-19T04:51:47;20.30;;;17.80;;
6412;SDS011;3239;48.714;9.472;2022-08-19T04:54:14;24.67;;;20.40;;
6412;SDS011;3239;48.714;9.472;2022-08-19T04:56:42;26.97;;;20.03;;
6412;SDS011;3239;48.714;9.472;2022-08-19T04:59:08;22.97;;;20.40;;
6412;SDS011;3239;48.714;9.472;2022-08-19T05:01:35;29.70;;;22.40;;
6412;SDS011;3239;48.714;9.472;2022-08-19T05:04:02;32.10;;;23.00;;
6412;SDS011;3239;48.714;9.472;2022-08-19T05:06:31;29.40;;;22.80;;
6412;SDS011;3239;48.714;9.472;2022-08-19T05:08:59;23.80;;;20.30;;
6412;SDS011;3239;48.714;9.472;2022-08-19T05:11:28;27.90;;;21.23;;
6412;SDS011;3239;48.714;9.472;2022-08-19T05:13:58;31.93;;;22.57;;
6412;SDS011;3239;48.714;9.472;2022-08-19T05:16:25;28.13;;;21.70;;
6412;SDS011;3239;48.714;9.472;2022-08-19T05:18:52;27.40;;;21.90;;
6412;SDS011;3239;48.714;9.472;2022-08-19T05:21:38;26.03;;;20.73;;
6412;SDS011;3239;48.714;9.472;2022-08-19T05:24:26;23.03;;;19.43;;
6412;SDS011;3239;48.714;9.472;2022-08-19T05:26:53;24.73;;;20.83;;
6412;SDS011;3239;48.714;9.472;2022-08-19T05:29:25;29.33;;;19.97;;
6412;SDS011;3239;48.714;9.472;2022-08-19T05:31:52;24.13;;;19.43;;
6412;SDS011;3239;48.714;9.472;2022-08-19T05:34:20;27.53;;;20.13;;
6412;SDS011;3239;48.714;9.472;2022-08-19T05:36:52;24.03;;;19.73;;
6412;SDS011;3239;48.714;9.472;2022-08-19T05:39:22;28.40;;;19.73;;
6412;SDS011;3239;48.714;9.472;2022-08-19T05:41:55;22.20;;;19.20;;
6412;SDS011;3239;48.714;9.472;2022-08-19T05:44:25;25.00;;;19.67;;
6412;SDS011;3239;48.714;9.472;2022-08-19T05:46:56;21.10;;;18.57;;
6412;SDS011;3239;48.714;9.472;2022-08-19T05:49:26;25.47;;;20.30;;
6412;SDS011;3239;48.714;9.472;2022-08-19T05:51:53;27.57;;;22.27;;
6412;SDS011;3239;48.714;9.472;2022-08-19T05:54:20;26.93;;;22.03;;
6412;SDS011;3239;48.714;9.472;2022-08-19T05:56:51;26.03;;;20.57;;
6412;SDS011;3239;48.714;9.472;2022-08-19T05:59:18;27.23;;;22.27;;
6412;SDS011;3239;48.714;9.472;2022-08-19T06:01:46;24.70;;;21.00;;
6412;SDS011;3239;48.714;9.472;2022-08-19T06:04:16;25.47;;;21.33;;
6412;SDS011;3239;48.714;9.472;2022-08-19T06:06:45;27.40;;;21.53;;
6412;SDS011;3239;48.714;9.472;2022-08-19T06:09:13;27.10;;;20.97;;
6412;SDS011;3239;48.714;9.472;2022-08-19T06:11:41;24.27;;;20.40;;
6412;SDS011;3239;48.714;9.472;2022-08-19T06:14:15;24.17;;;21.03;;
6412;SDS011;3239;48.714;9.472;2022-08-19T06:16:44;24.43;;;19.67;;
6412;SDS011;3239;48.714;9.472;2022-08-19T06:19:12;22.37;;;17.53;;
6412;SDS011;3239;48.714;9.472;2022-08-19T06:21:41;28.97;;;20.23;;
6412;SDS011;3239;48.714;9.472;2022-08-19T06:24:14;24.83;;;19.80;;
6412;SDS011;3239;48.714;9.472;2022-08-19T06:26:48;25.47;;;21.20;;
6412;SDS011;3239;48.714;9.472;2022-08-19T06:29:18;22.53;;;18.80;;
6412;SDS011;3239;48.714;9.472;2022-08-19T06:31:48;31.53;;;22.80;;
6412;SDS011;3239;48.714;9.472;2022-08-19T06:34:24;29.60;;;21.30;;
6412;SDS011;3239;48.714;9.472;2022-08-19T06:36:52;27.37;;;21.77;;
6412;SDS011;3239;48.714;9.472;2022-08-19T06:39:20;26.10;;;21.40;;
6412;SDS011;3239;48.714;9.472;2022-08-19T06:41:53;26.77;;;21.03;;
6412;SDS011;3239;48.714;9.472;2022-08-19T06:44:22;27.77;;;19.97;;
6412;SDS011;3239;48.714;9.472;2022-08-19T06:46:51;26.73;;;22.03;;
6412;SDS011;3239;48.714;9.472;2022-08-19T06:49:18;25.10;;;20.87;;
6412;SDS011;3239;48.714;9.472;2022-08-19T06:51:45;27.53;;;21.37;;
6412;SDS011;3239;48.714;9.472;2022-08-19T06:54:13;31.37;;;23.50;;
6412;SDS011;3239;48.714;9.472;2022-08-19T06:56:41;26.00;;;21.17;;
6412;SDS011;3239;48.714;9.472;2022-08-19T06:59:14;27.60;;;22.27;;
6412;SDS011;3239;48.714;9.472;2022-08-19T07:01:45;33.67;;;23.73;;
6412;SDS011;3239;48.714;9.472;2022-08-19T07:04:21;32.00;;;21.97;;
6412;SDS011;3239;48.714;9.472;2022-08-19T07:06:56;26.87;;;21.67;;
6412;SDS011;3239;48.714;9.472;2022-08-19T07:09:33;27.80;;;22.47;;
6412;SDS011;3239;48.714;9.472;2022-08-19T07:12:02;30.60;;;21.67;;
6412;SDS011;3239;48.714;9.472;2022-08-19T07:14:31;27.33;;;21.50;;
6412;SDS011;3239;48.714;9.472;2022-08-19T07:17:01;30.50;;;22.27;;
6412;SDS011;3239;48.714;9.472;2022-08-19T07:19:30;26.00;;;22.40;;
6412;SDS011;3239;48.714;9.472;2022-08-19T07:21:57;29.37;;;23.27;;
6412;SDS011;3239;48.714;9.472;2022-08-19T07:24:28;29.03;;;22.90;;
6412;SDS011;3239;48.714;9.472;2022-08-19T07:26:56;28.60;;;21.63;;
6412;SDS011;3239;48.714;9.472;2022-08-19T07:29:27;24.23;;;20.50;;
6412;SDS011;3239;48.714;9.472;2022-08-19T07:31:55;24.63;;;19.63;;
6412;SDS011;3239;48.714;9.472;2022-08-19T07:34:23;32.23;;;23.50;;
6412;SDS011;3239;48.714;9.472;2022-08-19T07:36:51;29.70;;;22.10;;
6412;SDS011;3239;48.714;9.472;2022-08-19T07:39:23;26.07;;;21.27;;
6412;SDS011;3239;48.714;9.472;2022-08-19T07:41:55;23.50;;;20.23;;
6412;SDS011;3239;48.714;9.472;2022-08-19T07:44:23;23.17;;;19.57;;
6412;SDS011;3239;48.714;9.472;2022-08-19T07:46:50;24.90;;;20.70;;
6412;SDS011;3239;48.714;9.472;2022-08-19T07:49:21;35.80;;;25.33;;
6412;SDS011;3239;48.714;9.472;2022-08-19T07:51:49;31.40;;;25.07;;
6412;SDS011;3239;48.714;9.472;2022-08-19T07:54:27;31.83;;;23.30;;
6412;SDS011;3239;48.714;9.472;2022-08-19T07:56:59;41.23;;;25.70;;
6412;SDS011;3239;48.714;9.472;2022-08-19T07:59:25;28.93;;;23.80;;
6412;SDS011;3239;48.714;9.472;2022-08-19T08:01:53;27.77;;;22.80;;
6412;SDS011;3239;48.714;9.472;2022-08-19T08:04:20;29.33;;;23.13;;
6412;SDS011;3239;48.714;9.472;2022-08-19T08:07:05;28.27;;;22.37;;
6412;SDS011;3239;48.714;9.472;2022-08-19T08:09:52;32.17;;;25.77;;
6412;SDS011;3239;48.714;9.472;2022-08-19T08:12:20;26.07;;;22.87;;
6412;SDS011;3239;48.714;9.472;2022-08-19T08:14:54;31.73;;;25.00;;
6412;SDS011;3239;48.714;9.472;2022-08-19T08:17:24;34.30;;;24.03;;
6412;SDS011;3239;48.714;9.472;2022-08-19T08:19:52;31.30;;;24.80;;
6412;SDS011;3239;48.714;9.472;2022-08-19T08:22:19;27.37;;;21.97;;
6412;SDS011;3239;48.714;9.472;2022-08-19T08:25:06;26.13;;;21.93;;
6412;SDS011;3239;48.714;9.472;2022-08-19T08:27:40;27.83;;;23.10;;
6412;SDS011;3239;48.714;9.472;2022-08-19T08:30:09;33.70;;;26.43;;
6412;SDS011;3239;48.714;9.472;2022-08-19T08:32:41;26.70;;;22.40;;
6412;SDS011;3239;48.714;9.472;2022-08-19T08:35:09;30.90;;;25.00;;
6412;SDS011;3239;48.714;9.472;2022-08-19T08:37:38;29.67;;;25.60;;
6412;SDS011;3239;48.714;9.472;2022-08-19T08:40:04;29.67;;;23.43;;
6412;SDS011;3239;48.714;9.472;2022-08-19T08:46:09;25.90;;;20.97;;
6412;SDS011;3239;48.714;9.472;2022-08-19T08:49:01;29.70;;;23.60;;
6412;SDS011;3239;48.714;9.472;2022-08-19T08:51:46;24.83;;;20.17;;
6412;SDS011;3239;48.714;9.472;2022-08-19T08:54:20;28.70;;;24.00;;
6412;SDS011;3239;48.714;9.472;2022-08-19T08:56:52;29.33;;;24.67;;
6412;SDS011;3239;48.714;9.472;2022-08-19T09:01:59;29.37;;;23.10;;
6412;SDS011;3239;48.714;9.472;2022-08-19T09:04:26;26.53;;;21.60;;
6412;SDS011;3239;48.714;9.472;2022-08-19T09:06:55;34.17;;;25.70;;
6412;SDS011;3239;48.714;9.472;2022-08-19T09:09:31;30.50;;;24.20;;
6412;SDS011;3239;48.714;9.472;2022-08-19T09:15:17;29.20;;;23.47;;
6412;SDS011;3239;48.714;9.472;2022-08-19T09:17:52;30.70;;;23.90;;
6412;SDS011;3239;48.714;9.472;2022-08-19T09:20:20;31.50;;;26.73;;
6412;SDS011;3239;48.714;9.472;2022-08-19T09:22:48;29.93;;;24.17;;
6412;SDS011;3239;48.714;9.472;2022-08-19T09:25:16;31.33;;;25.60;;
6412;SDS011;3239;48.714;9.472;2022-08-19T09:27:48;28.77;;;22.97;;
6412;SDS011;3239;48.714;9.472;2022-08-19T09:30:18;30.07;;;22.10;;
6412;SDS011;3239;48.714;9.472;2022-08-19T09:32:49;26.70;;;22.47;;
6412;SDS011;3239;48.714;9.472;2022-08-19T09:35:18;29.70;;;22.33;;
6412;SDS011;3239;48.714;9.472;2022-08-19T09:37:47;28.67;;;23.40;;
6412;SDS011;3239;48.714;9.472;2022-08-19T09:40:14;36.80;;;27.30;;
6412;SDS011;3239;48.714;9.472;2022-08-19T09:42:45;31.50;;;25.33;;
6412;SDS011;3239;48.714;9.472;2022-08-19T09:45:12;34.30;;;25.47;;
6412;SDS011;3239;48.714;9.472;2022-08-19T09:47:45;30.93;;;25.17;;
6412;SDS011;3239;48.714;9.472;2022-08-19T09:50:11;30.50;;;23.83;;
6412;SDS011;3239;48.714;9.472;2022-08-19T09:52:38;32.70;;;24.97;;
6412;SDS011;3239;48.714;9.472;2022-08-19T09:55:04;32.33;;;26.30;;
6412;SDS011;3239;48.714;9.472;2022-08-19T09:57:32;34.43;;;25.97;;
6412;SDS011;3239;48.714;9.472;2022-08-19T09:59:59;27.80;;;22.43;;
6412;SDS011;3239;48.714;9.472;2022-08-19T10:02:26;31.37;;;24.93;;
6412;SDS011;3239;48.714;9.472;2022-08-19T10:04:52;32.00;;;23.40;;
6412;SDS011;3239;48.714;9.472;2022-08-19T10:07:36;29.43;;;24.13;;
6412;SDS011;3239;48.714;9.472;2022-08-19T10:10:04;28.77;;;21.87;;
6412;SDS011;3239;48.714;9.472;2022-08-19T10:12:33;30.97;;;24.23;;
6412;SDS011;3239;48.714;9.472;2022-08-19T10:14:59;25.23;;;21.53;;
6412;SDS011;3239;48.714;9.472;2022-08-19T10:17:25;24.73;;;21.10;;
6412;SDS011;3239;48.714;9.472;2022-08-19T10:19:51;28.27;;;21.37;;
6412;SDS011;3239;48.714;9.472;2022-08-19T10:22:18;31.37;;;24.17;;
6412;SDS011;3239;48.714;9.472;2022-08-19T10:24:47;26.40;;;21.80;;
6412;SDS011;3239;48.714;9.472;2022-08-19T10:27:14;29.80;;;23.07;;
6412;SDS011;3239;48.714;9.472;2022-08-19T10:29:40;36.20;;;25.90;;
6412;SDS011;3239;48.714;9.472;2022-08-19T10:32:06;31.87;;;25.83;;
6412;SDS011;3239;48.714;9.472;2022-08-19T10:34:34;33.23;;;25.60;;
6412;SDS011;3239;48.714;9.472;2022-08-19T10:37:03;29.03;;;22.37;;
6412;SDS011;3239;48.714;9.472;2022-08-19T10:39:31;35.90;;;27.43;;
6412;SDS011;3239;48.714;9.472;2022-08-19T10:41:59;34.43;;;27.10;;
6412;SDS011;3239;48.714;9.472;2022-08-19T10:44:33;33.50;;;25.87;;
6412;SDS011;3239;48.714;9.472;2022-08-19T10:47:00;28.87;;;24.07;;
6412;SDS011;3239;48.714;9.472;2022-08-19T10:49:28;39.13;;;26.30;;
6412;SDS011;3239;48.714;9.472;2022-08-19T10:51:54;27.03;;;22.07;;
6412;SDS011;3239;48.714;9.472;2022-08-19T10:54:39;36.00;;;26.40;;
6412;SDS011;3239;48.714;9.472;2022-08-19T10:57:44;38.40;;;25.70;;
6412;SDS011;3239;48.714;9.472;2022-08-19T11:00:10;34.23;;;26.47;;
6412;SDS011;3239;48.714;9.472;2022-08-19T11:02:36;34.67;;;28.00;;
6412;SDS011;3239;48.714;9.472;2022-08-19T11:05:03;29.43;;;23.07;;
6412;SDS011;3239;48.714;9.472;2022-08-19T11:07:30;39.40;;;26.87;;
6412;SDS011;3239;48.714;9.472;2022-08-19T11:09:56;37.37;;;26.83;;
6412;SDS011;3239;48.714;9.472;2022-08-19T11:12:21;36.00;;;28.97;;
6412;SDS011;3239;48.714;9.472;2022-08-19T11:14:47;32.57;;;26.80;;
6412;SDS011;3239;48.714;9.472;2022-08-19T11:17:15;40.07;;;29.17;;
6412;SDS011;3239;48.714;9.472;2022-08-19T11:19:41;38.47;;;30.67;;
6412;SDS011;3239;48.714;9.472;2022-08-19T11:22:07;40.00;;;31.30;;
6412;SDS011;3239;48.714;9.472;2022-08-19T11:24:34;39.60;;;28.23;;
6412;SDS011;3239;48.714;9.472;2022-08-19T11:27:05;48.47;;;30.90;;
6412;SDS011;3239;48.714;9.472;2022-08-19T11:29:34;43.70;;;32.63;;
6412;SDS011;3239;48.714;9.472;2022-08-19T11:32:04;39.17;;;30.43;;
6412;SDS011;3239;48.714;9.472;2022-08-19T11:34:37;42.97;;;32.60;;
6412;SDS011;3239;48.714;9.472;2022-08-19T11:37:04;44.93;;;31.87;;
6412;SDS011;3239;48.714;9.472;2022-08-19T11:39:31;45.53;;;31.23;;
6412;SDS011;3239;48.714;9.472;2022-08-19T11:41:58;39.00;;;29.20;;
6412;SDS011;3239;48.714;9.472;2022-08-19T11:44:27;41.13;;;29.20;;
6412;SDS011;3239;48.714;9.472;2022-08-19T11:46:55;38.63;;;28.53;;
6412;SDS011;3239;48.714;9.472;2022-08-19T11:49:22;51.83;;;31.67;;
6412;SDS011;3239;48.714;9.472;2022-08-19T11:51:48;43.17;;;30.57;;
6412;SDS011;3239;48.714;9.472;2022-08-19T11:54:16;40.77;;;30.97;;
6412;SDS011;3239;48.714;9.472;2022-08-19T11:56:43;39.40;;;29.70;;
6412;SDS011;3239;48.714;9.472;2022-08-19T11:59:11;43.40;;;31.80;;
6412;SDS011;3239;48.714;9.472;2022-08-19T12:01:36;39.10;;;31.43;;
6412;SDS011;3239;48.714;9.472;2022-08-19T12:04:02;40.97;;;31.50;;
6412;SDS011;3239;48.714;9.472;2022-08-19T12:06:31;41.13;;;33.20;;
6412;SDS011;3239;48.714;9.472;2022-08-19T12:09:00;42.87;;;32.30;;
6412;SDS011;3239;48.714;9.472;2022-08-19T12:11:30;36.37;;;27.57;;
6412;SDS011;3239;48.714;9.472;2022-08-19T12:13:55;41.57;;;30.57;;
6412;SDS011;3239;48.714;9.472;2022-08-19T12:16:23;40.90;;;29.27;;
6412;SDS011;3239;48.714;9.472;2022-08-19T12:18:53;44.60;;;30.03;;
6412;SDS011;3239;48.714;9.472;2022-08-19T12:21:22;41.43;;;31.70;;
6412;SDS011;3239;48.714;9.472;2022-08-19T12:23:53;43.87;;;32.57;;
6412;SDS011;3239;48.714;9.472;2022-08-19T12:26:21;42.37;;;32.57;;
6412;SDS011;3239;48.714;9.472;2022-08-19T12:28:48;42.67;;;30.50;;
6412;SDS011;3239;48.714;9.472;2022-08-19T12:31:14;41.27;;;31.30;;
6412;SDS011;3239;48.714;9.472;2022-08-19T12:33:40;38.70;;;30.40;;
6412;SDS011;3239;48.714;9.472;2022-08-19T12:36:09;43.50;;;31.17;;
6412;SDS011;3239;48.714;9.472;2022-08-19T12:38:37;43.90;;;32.03;;
6412;SDS011;3239;48.714;9.472;2022-08-19T12:41:05;41.77;;;29.97;;
6412;SDS011;3239;48.714;9.472;2022-08-19T12:43:34;46.07;;;33.13;;
6412;SDS011;3239;48.714;9.472;2022-08-19T12:46:01;48.10;;;32.40;;
6412;SDS011;3239;48.714;9.472;2022-08-19T12:48:29;46.60;;;32.90;;
6412;SDS011;3239;48.714;9.472;2022-08-19T12:50:55;43.10;;;32.00;;
6412;SDS011;3239;48.714;9.472;2022-08-19T12:53:21;42.30;;;30.20;;
6412;SDS011;3239;48.714;9.472;2022-08-19T12:55:48;43.67;;;31.60;;
6412;SDS011;3239;48.714;9.472;2022-08-19T12:58:21;45.80;;;31.83;;
6412;SDS011;3239;48.714;9.472;2022-08-19T13:00:47;46.30;;;30.77;;
6412;SDS011;3239;48.714;9.472;2022-08-19T13:03:13;44.90;;;31.43;;
6412;SDS011;3239;48.714;9.472;2022-08-19T13:05:40;46.63;;;32.27;;
6412;SDS011;3239;48.714;9.472;2022-08-19T13:08:06;37.93;;;28.90;;
6412;SDS011;3239;48.714;9.472;2022-08-19T13:10:33;45.10;;;34.50;;
6412;SDS011;3239;48.714;9.472;2022-08-19T13:13:02;49.40;;;34.47;;
6412;SDS011;3239;48.714;9.472;2022-08-19T13:15:32;41.17;;;31.60;;
6412;SDS011;3239;48.714;9.472;2022-08-19T13:18:00;38.30;;;29.67;;
6412;SDS011;3239;48.714;9.472;2022-08-19T13:20:26;42.83;;;30.33;;
6412;SDS011;3239;48.714;9.472;2022-08-19T13:22:52;33.57;;;27.07;;
6412;SDS011;3239;48.714;9.472;2022-08-19T13:25:19;37.33;;;28.10;;
6412;SDS011;3239;48.714;9.472;2022-08-19T13:27:46;32.77;;;25.23;;
6412;SDS011;3239;48.714;9.472;2022-08-19T13:30:14;41.27;;;29.70;;
6412;SDS011;3239;48.714;9.472;2022-08-19T13:33:00;41.63;;;29.83;;
6412;SDS011;3239;48.714;9.472;2022-08-19T13:38:15;36.33;;;27.90;;
6412;SDS011;3239;48.714;9.472;2022-08-19T13:40:45;38.93;;;30.07;;
6412;SDS011;3239;48.714;9.472;2022-08-19T13:43:12;30.50;;;25.47;;
6412;SDS011;3239;48.714;9.472;2022-08-19T13:45:38;35.23;;;26.97;;
6412;SDS011;3239;48.714;9.472;2022-08-19T13:48:05;35.67;;;27.80;;
6412;SDS011;3239;48.714;9.472;2022-08-19T13:50:34;35.43;;;27.73;;
6412;SDS011;3239;48.714;9.472;2022-08-19T13:53:06;36.63;;;28.87;;
6412;SDS011;3239;48.714;9.472;2022-08-19T13:55:34;35.83;;;28.60;;
6412;SDS011;3239;48.714;9.472;2022-08-19T13:58:02;36.97;;;28.93;;
6412;SDS011;3239;48.714;9.472;2022-08-19T14:00:30;35.70;;;29.70;;
6412;SDS011;3239;48.714;9.472;2022-08-19T14:03:02;35.10;;;28.30;;
6412;SDS011;3239;48.714;9.472;2022-08-19T14:05:29;38.20;;;28.47;;
6412;SDS011;3239;48.714;9.472;2022-08-19T14:07:56;34.70;;;27.70;;
6412;SDS011;3239;48.714;9.472;2022-08-19T14:10:22;33.90;;;28.07;;
6412;SDS011;3239;48.714;9.472;2022-08-19T14:12:53;38.33;;;27.90;;
6412;SDS011;3239;48.714;9.472;2022-08-19T14:15:21;32.13;;;26.97;;
6412;SDS011;3239;48.714;9.472;2022-08-19T14:17:48;34.83;;;27.40;;
6412;SDS011;3239;48.714;9.472;2022-08-19T14:20:14;36.87;;;28.40;;
6412;SDS011;3239;48.714;9.472;2022-08-19T14:22:41;35.33;;;28.67;;
6412;SDS011;3239;48.714;9.472;2022-08-19T14:25:09;36.90;;;27.03;;
6412;SDS011;3239;48.714;9.472;2022-08-19T14:27:39;32.80;;;26.50;;
6412;SDS011;3239;48.714;9.472;2022-08-19T14:30:07;39.73;;;29.10;;
6412;SDS011;3239;48.714;9.472;2022-08-19T14:32:37;32.27;;;26.50;;
6412;SDS011;3239;48.714;9.472;2022-08-19T14:35:04;29.57;;;23.60;;
6412;SDS011;3239;48.714;9.472;2022-08-19T14:37:33;30.17;;;24.53;;
6412;SDS011;3239;48.714;9.472;2022-08-19T14:39:59;30.63;;;23.83;;
6412;SDS011;3239;48.714;9.472;2022-08-19T14:42:26;32.90;;;26.60;;
6412;SDS011;3239;48.714;9.472;2022-08-19T14:44:52;34.53;;;25.90;;
6412;SDS011;3239;48.714;9.472;2022-08-19T14:47:18;33.20;;;26.03;;
6412;SDS011;3239;48.714;9.472;2022-08-19T14:49:44;37.63;;;27.63;;
6412;SDS011;3239;48.714;9.472;2022-08-19T14:52:10;34.93;;;28.13;;
6412;SDS011;3239;48.714;9.472;2022-08-19T14:54:36;32.17;;;25.40;;
6412;SDS011;3239;48.714;9.472;2022-08-19T14:57:01;33.20;;;25.60;;
6412;SDS011;3239;48.714;9.472;2022-08-19T14:59:27;29.67;;;24.67;;
6412;SDS011;3239;48.714;9.472;2022-08-19T15:01:53;33.30;;;25.50;;
6412;SDS011;3239;48.714;9.472;2022-08-19T15:04:19;27.27;;;21.20;;
6412;SDS011;3239;48.714;9.472;2022-08-19T15:06:45;30.33;;;24.60;;
6412;SDS011;3239;48.714;9.472;2022-08-19T15:09:11;32.43;;;25.00;;
6412;SDS011;3239;48.714;9.472;2022-08-19T15:11:36;30.77;;;23.80;;
6412;SDS011;3239;48.714;9.472;2022-08-19T15:14:03;25.37;;;22.60;;
6412;SDS011;3239;48.714;9.472;2022-08-19T15:16:30;30.10;;;24.73;;